sensor_id;sensor_type;location;lat;lon;timestamp;P1;durP1;ratioP1;P2;durP2;ratioP2
5147;SDS011;2592;48.140;7.614;2023-09-12T00:00:55;12.73;;;7.67;;
5147;SDS011;2592;48.140;7.614;2023-09-12T00:03:22;16.10;;;7.90;;
5147;SDS011;2592;48.140;7.614;2023-09-12T00:05:52;11.00;;;7.03;;
5147;SDS011;2592;48.140;7.614;2023-09-12T00:08:19;9.10;;;6.30;;
5147;SDS011;2592;48.140;7.614;2023-09-12T00:10:45;13.30;;;6.67;;
5147;SDS011;2592;48.140;7.614;2023-09-12T00:13:12;16.37;;;7.43;;
5147;SDS011;2592;48.140;7.614;2023-09-12T00:15:39;13.53;;;6.80;;
5147;SDS011;2592;48.140;7.614;2023-09-12T00:18:06;13.60;;;7.43;;
5147;SDS011;2592;48.140;7.614;2023-09-12T00:20:32;15.90;;;8.73;;
5147;SDS011;2592;48.140;7.614;2023-09-12T00:22:59;16.43;;;7.30;;
5147;SDS011;2592;48.140;7.614;2023-09-12T00:25:25;11.53;;;7.33;;
5147;SDS011;2592;48.140;7.614;2023-09-12T00:27:51;16.90;;;7.67;;
5147;SDS011;2592;48.140;7.614;2023-09-12T00:30:18;13.77;;;7.37;;
5147;SDS011;2592;48.140;7.614;2023-09-12T00:32:46;11.07;;;7.00;;
5147;SDS011;2592;48.140;7.614;2023-09-12T00:35:12;11.00;;;6.53;;
5147;SDS011;2592;48.140;7.614;2023-09-12T00:37:38;12.07;;;7.00;;
5147;SDS011;2592;48.140;7.614;2023-09-12T00:40:06;12.47;;;7.30;;
5147;SDS011;2592;48.140;7.614;2023-09-12T00:42:33;16.20;;;7.20;;
5147;SDS011;2592;48.140;7.614;2023-09-12T00:44:59;10.67;;;7.60;;
5147;SDS011;2592;48.140;7.614;2023-09-12T00:47:25;20.73;;;7.63;;
5147;SDS011;2592;48.140;7.614;2023-09-12T00:49:54;11.73;;;7.50;;
5147;SDS011;2592;48.140;7.614;2023-09-12T00:52:21;9.53;;;6.27;;
5147;SDS011;2592;48.140;7.614;2023-09-12T00:54:48;12.97;;;8.00;;
5147;SDS011;2592;48.140;7.614;2023-09-12T00:57:15;10.00;;;7.10;;
5147;SDS011;2592;48.140;7.614;2023-09-12T00:59:41;21.90;;;8.40;;
5147;SDS011;2592;48.140;7.614;2023-09-12T01:02:08;18.70;;;7.83;;
5147;SDS011;2592;48.140;7.614;2023-09-12T01:04:35;11.40;;;8.23;;
5147;SDS011;2592;48.140;7.614;2023-09-12T01:07:03;11.47;;;7.43;;
5147;SDS011;2592;48.140;7.614;2023-09-12T01:09:30;12.23;;;7.90;;
5147;SDS011;2592;48.140;7.614;2023-09-12T01:11:57;9.50;;;7.60;;
5147;SDS011;2592;48.140;7.614;2023-09-12T01:14:23;11.40;;;7.00;;
5147;SDS011;2592;48.140;7.614;2023-09-12T01:16:50;14.63;;;8.00;;
5147;SDS011;2592;48.140;7.614;2023-09-12T01:19:16;9.47;;;6.73;;
5147;SDS011;2592;48.140;7.614;2023-09-12T01:21:53;10.33;;;7.57;;
5147;SDS011;2592;48.140;7.614;2023-09-12T01:24:31;9.90;;;7.60;;
5147;SDS011;2592;48.140;7.614;2023-09-12T01:27:11;9.93;;;7.20;;
5147;SDS011;2592;48.140;7.614;2023-09-12T01:29:38;14.80;;;7.57;;
5147;SDS011;2592;48.140;7.614;2023-09-12T01:32:05;12.10;;;7.50;;
5147;SDS011;2592;48.140;7.614;2023-09-12T01:34:32;10.97;;;7.00;;
5147;SDS011;2592;48.140;7.614;2023-09-12T01:36:58;8.80;;;6.90;;
5147;SDS011;2592;48.140;7.614;2023-09-12T01:39:24;13.60;;;7.50;;
5147;SDS011;2592;48.140;7.614;2023-09-12T01:41:51;11.37;;;7.33;;
5147;SDS011;2592;48.140;7.614;2023-09-12T01:44:20;20.50;;;6.90;;
5147;SDS011;2592;48.140;7.614;2023-09-12T01:46:48;17.50;;;7.43;;
5147;SDS011;2592;48.140;7.614;2023-09-12T01:49:15;11.50;;;6.97;;
5147;SDS011;2592;48.140;7.614;2023-09-12T01:51:44;14.07;;;7.73;;
5147;SDS011;2592;48.140;7.614;2023-09-12T01:54:10;20.60;;;7.57;;
5147;SDS011;2592;48.140;7.614;2023-09-12T01:56:37;14.37;;;7.87;;
5147;SDS011;2592;48.140;7.614;2023-09-12T01:59:04;11.20;;;7.37;;
5147;SDS011;2592;48.140;7.614;2023-09-12T02:01:32;15.33;;;8.00;;
5147;SDS011;2592;48.140;7.614;2023-09-12T02:03:58;17.73;;;8.50;;
5147;SDS011;2592;48.140;7.614;2023-09-12T02:06:25;18.33;;;7.80;;
5147;SDS011;2592;48.140;7.614;2023-09-12T02:08:51;11.87;;;7.43;;
5147;SDS011;2592;48.140;7.614;2023-09-12T02:11:18;14.97;;;8.40;;
5147;SDS011;2592;48.140;7.614;2023-09-12T02:13:44;10.10;;;7.17;;
5147;SDS011;2592;48.140;7.614;2023-09-12T02:16:10;11.60;;;7.10;;
5147;SDS011;2592;48.140;7.614;2023-09-12T02:18:38;15.43;;;7.97;;
5147;SDS011;2592;48.140;7.614;2023-09-12T02:21:05;10.47;;;7.00;;
5147;SDS011;2592;48.140;7.614;2023-09-12T02:23:31;8.50;;;7.00;;
5147;SDS011;2592;48.140;7.614;2023-09-12T02:25:58;14.17;;;7.47;;
5147;SDS011;2592;48.140;7.614;2023-09-12T02:28:24;12.00;;;7.27;;
5147;SDS011;2592;48.140;7.614;2023-09-12T02:30:50;15.00;;;8.17;;
5147;SDS011;2592;48.140;7.614;2023-09-12T02:33:17;16.80;;;7.40;;
5147;SDS011;2592;48.140;7.614;2023-09-12T02:35:45;14.90;;;8.40;;
5147;SDS011;2592;48.140;7.614;2023-09-12T02:38:11;13.10;;;7.50;;
5147;SDS011;2592;48.140;7.614;2023-09-12T02:40:37;11.83;;;7.80;;
5147;SDS011;2592;48.140;7.614;2023-09-12T02:43:04;14.73;;;7.83;;
5147;SDS011;2592;48.140;7.614;2023-09-12T02:45:30;12.47;;;7.43;;
5147;SDS011;2592;48.140;7.614;2023-09-12T02:47:57;9.33;;;7.23;;
5147;SDS011;2592;48.140;7.614;2023-09-12T02:50:23;10.57;;;6.90;;
5147;SDS011;2592;48.140;7.614;2023-09-12T02:52:51;13.70;;;7.37;;
5147;SDS011;2592;48.140;7.614;2023-09-12T02:55:17;14.03;;;7.33;;
5147;SDS011;2592;48.140;7.614;2023-09-12T02:57:43;8.90;;;6.63;;
5147;SDS011;2592;48.140;7.614;2023-09-12T03:00:10;15.33;;;6.90;;
5147;SDS011;2592;48.140;7.614;2023-09-12T03:02:37;10.00;;;7.33;;
5147;SDS011;2592;48.140;7.614;2023-09-12T03:05:03;12.47;;;7.40;;
5147;SDS011;2592;48.140;7.614;2023-09-12T03:07:30;11.10;;;7.43;;
5147;SDS011;2592;48.140;7.614;2023-09-12T03:09:58;9.23;;;6.93;;
5147;SDS011;2592;48.140;7.614;2023-09-12T03:12:24;12.10;;;7.67;;
5147;SDS011;2592;48.140;7.614;2023-09-12T03:14:51;11.57;;;6.93;;
5147;SDS011;2592;48.140;7.614;2023-09-12T03:17:17;11.43;;;7.10;;
5147;SDS011;2592;48.140;7.614;2023-09-12T03:19:44;12.50;;;6.77;;
5147;SDS011;2592;48.140;7.614;2023-09-12T03:22:10;13.87;;;7.90;;
5147;SDS011;2592;48.140;7.614;2023-09-12T03:24:36;10.03;;;6.83;;
5147;SDS011;2592;48.140;7.614;2023-09-12T03:27:04;10.13;;;7.13;;
5147;SDS011;2592;48.140;7.614;2023-09-12T03:29:31;17.93;;;6.40;;
5147;SDS011;2592;48.140;7.614;2023-09-12T03:31:57;9.27;;;7.20;;
5147;SDS011;2592;48.140;7.614;2023-09-12T03:34:24;11.77;;;6.60;;
5147;SDS011;2592;48.140;7.614;2023-09-12T03:36:50;9.13;;;7.50;;
5147;SDS011;2592;48.140;7.614;2023-09-12T03:39:16;11.33;;;7.37;;
5147;SDS011;2592;48.140;7.614;2023-09-12T03:41:43;11.47;;;7.50;;
5147;SDS011;2592;48.140;7.614;2023-09-12T03:44:10;10.60;;;6.70;;
5147;SDS011;2592;48.140;7.614;2023-09-12T03:46:37;11.30;;;7.30;;
5147;SDS011;2592;48.140;7.614;2023-09-12T03:49:03;12.50;;;7.07;;
5147;SDS011;2592;48.140;7.614;2023-09-12T03:51:30;9.37;;;7.40;;
5147;SDS011;2592;48.140;7.614;2023-09-12T03:53:56;8.53;;;6.20;;
5147;SDS011;2592;48.140;7.614;2023-09-12T03:56:23;13.03;;;7.87;;
5147;SDS011;2592;48.140;7.614;2023-09-12T03:58:49;12.30;;;7.37;;
5147;SDS011;2592;48.140;7.614;2023-09-12T04:01:17;12.17;;;7.83;;
5147;SDS011;2592;48.140;7.614;2023-09-12T04:03:43;9.67;;;7.90;;
5147;SDS011;2592;48.140;7.614;2023-09-12T04:06:12;10.30;;;8.30;;
5147;SDS011;2592;48.140;7.614;2023-09-12T04:08:39;9.40;;;8.30;;
5147;SDS011;2592;48.140;7.614;2023-09-12T04:11:05;14.03;;;8.90;;
5147;SDS011;2592;48.140;7.614;2023-09-12T04:13:31;10.90;;;8.00;;
5147;SDS011;2592;48.140;7.614;2023-09-12T04:15:58;9.17;;;7.77;;
5147;SDS011;2592;48.140;7.614;2023-09-12T04:18:26;11.00;;;8.57;;
5147;SDS011;2592;48.140;7.614;2023-09-12T04:20:52;9.17;;;7.87;;
5147;SDS011;2592;48.140;7.614;2023-09-12T04:23:20;10.97;;;7.90;;
5147;SDS011;2592;48.140;7.614;2023-09-12T04:25:46;9.80;;;7.73;;
5147;SDS011;2592;48.140;7.614;2023-09-12T04:28:13;9.83;;;7.90;;
5147;SDS011;2592;48.140;7.614;2023-09-12T04:30:39;10.43;;;7.17;;
5147;SDS011;2592;48.140;7.614;2023-09-12T04:33:06;10.87;;;7.63;;
5147;SDS011;2592;48.140;7.614;2023-09-12T04:35:34;11.23;;;7.50;;
5147;SDS011;2592;48.140;7.614;2023-09-12T04:38:00;11.80;;;8.20;;
5147;SDS011;2592;48.140;7.614;2023-09-12T04:40:28;10.20;;;9.10;;
5147;SDS011;2592;48.140;7.614;2023-09-12T04:42:54;12.83;;;8.27;;
5147;SDS011;2592;48.140;7.614;2023-09-12T04:45:21;11.33;;;8.90;;
5147;SDS011;2592;48.140;7.614;2023-09-12T04:47:47;12.53;;;8.30;;
5147;SDS011;2592;48.140;7.614;2023-09-12T04:50:14;16.03;;;9.10;;
5147;SDS011;2592;48.140;7.614;2023-09-12T04:52:41;15.70;;;9.83;;
5147;SDS011;2592;48.140;7.614;2023-09-12T04:55:08;17.50;;;9.83;;
5147;SDS011;2592;48.140;7.614;2023-09-12T04:57:34;12.33;;;9.17;;
5147;SDS011;2592;48.140;7.614;2023-09-12T05:00:01;16.37;;;11.30;;
5147;SDS011;2592;48.140;7.614;2023-09-12T05:02:27;13.57;;;10.73;;
5147;SDS011;2592;48.140;7.614;2023-09-12T05:04:54;19.00;;;11.13;;
5147;SDS011;2592;48.140;7.614;2023-09-12T05:07:20;17.00;;;10.83;;
5147;SDS011;2592;48.140;7.614;2023-09-12T05:09:49;18.73;;;11.17;;
5147;SDS011;2592;48.140;7.614;2023-09-12T05:12:15;17.40;;;9.77;;
5147;SDS011;2592;48.140;7.614;2023-09-12T05:14:41;17.40;;;10.40;;
5147;SDS011;2592;48.140;7.614;2023-09-12T05:17:08;17.43;;;11.90;;
5147;SDS011;2592;48.140;7.614;2023-09-12T05:19:34;17.17;;;11.20;;
5147;SDS011;2592;48.140;7.614;2023-09-12T05:22:01;16.53;;;11.10;;
5147;SDS011;2592;48.140;7.614;2023-09-12T05:24:27;16.70;;;11.70;;
5147;SDS011;2592;48.140;7.614;2023-09-12T05:26:55;19.70;;;11.90;;
5147;SDS011;2592;48.140;7.614;2023-09-12T05:29:21;13.77;;;10.77;;
5147;SDS011;2592;48.140;7.614;2023-09-12T05:31:48;20.50;;;11.63;;
5147;SDS011;2592;48.140;7.614;2023-09-12T05:34:14;23.23;;;12.07;;
5147;SDS011;2592;48.140;7.614;2023-09-12T05:36:41;17.90;;;12.13;;
5147;SDS011;2592;48.140;7.614;2023-09-12T05:39:07;20.70;;;13.33;;
5147;SDS011;2592;48.140;7.614;2023-09-12T05:41:34;21.47;;;12.10;;
5147;SDS011;2592;48.140;7.614;2023-09-12T05:44:02;21.13;;;12.80;;
5147;SDS011;2592;48.140;7.614;2023-09-12T05:46:28;24.27;;;11.93;;
5147;SDS011;2592;48.140;7.614;2023-09-12T05:48:55;16.23;;;10.37;;
5147;SDS011;2592;48.140;7.614;2023-09-12T05:51:21;18.23;;;12.50;;
5147;SDS011;2592;48.140;7.614;2023-09-12T05:53:48;25.60;;;13.50;;
5147;SDS011;2592;48.140;7.614;2023-09-12T05:56:14;16.50;;;11.53;;
5147;SDS011;2592;48.140;7.614;2023-09-12T05:58:41;22.30;;;10.90;;
5147;SDS011;2592;48.140;7.614;2023-09-12T06:01:09;18.37;;;12.70;;
5147;SDS011;2592;48.140;7.614;2023-09-12T06:03:35;19.93;;;12.13;;
5147;SDS011;2592;48.140;7.614;2023-09-12T06:06:02;20.20;;;11.23;;
5147;SDS011;2592;48.140;7.614;2023-09-12T06:08:28;24.60;;;10.50;;
5147;SDS011;2592;48.140;7.614;2023-09-12T06:10:55;21.67;;;9.23;;
5147;SDS011;2592;48.140;7.614;2023-09-12T06:13:21;16.93;;;10.27;;
5147;SDS011;2592;48.140;7.614;2023-09-12T06:15:48;16.77;;;10.07;;
5147;SDS011;2592;48.140;7.614;2023-09-12T06:18:15;25.17;;;11.07;;
5147;SDS011;2592;48.140;7.614;2023-09-12T06:20:43;23.97;;;11.77;;
5147;SDS011;2592;48.140;7.614;2023-09-12T06:23:09;22.43;;;11.20;;
5147;SDS011;2592;48.140;7.614;2023-09-12T06:25:36;19.37;;;11.63;;
5147;SDS011;2592;48.140;7.614;2023-09-12T06:28:03;22.83;;;11.37;;
5147;SDS011;2592;48.140;7.614;2023-09-12T06:30:29;24.50;;;11.90;;
5147;SDS011;2592;48.140;7.614;2023-09-12T06:32:55;16.40;;;11.57;;
5147;SDS011;2592;48.140;7.614;2023-09-12T06:35:23;16.50;;;11.57;;
5147;SDS011;2592;48.140;7.614;2023-09-12T06:37:50;55.90;;;11.53;;
5147;SDS011;2592;48.140;7.614;2023-09-12T06:40:16;19.27;;;14.10;;
5147;SDS011;2592;48.140;7.614;2023-09-12T06:42:43;21.73;;;12.20;;
5147;SDS011;2592;48.140;7.614;2023-09-12T06:45:09;24.93;;;15.17;;
5147;SDS011;2592;48.140;7.614;2023-09-12T06:47:36;25.27;;;15.67;;
5147;SDS011;2592;48.140;7.614;2023-09-12T06:50:02;24.27;;;14.63;;
5147;SDS011;2592;48.140;7.614;2023-09-12T06:52:30;25.87;;;16.60;;
5147;SDS011;2592;48.140;7.614;2023-09-12T06:54:57;31.00;;;15.83;;
5147;SDS011;2592;48.140;7.614;2023-09-12T06:57:23;22.80;;;15.00;;
5147;SDS011;2592;48.140;7.614;2023-09-12T06:59:50;27.43;;;16.87;;
5147;SDS011;2592;48.140;7.614;2023-09-12T07:02:16;29.67;;;16.07;;
5147;SDS011;2592;48.140;7.614;2023-09-12T07:04:43;32.90;;;15.70;;
5147;SDS011;2592;48.140;7.614;2023-09-12T07:07:09;20.53;;;13.63;;
5147;SDS011;2592;48.140;7.614;2023-09-12T07:09:37;17.80;;;12.70;;
5147;SDS011;2592;48.140;7.614;2023-09-12T07:12:04;23.80;;;15.00;;
5147;SDS011;2592;48.140;7.614;2023-09-12T07:14:30;21.67;;;12.90;;
5147;SDS011;2592;48.140;7.614;2023-09-12T07:16:57;23.23;;;14.97;;
5147;SDS011;2592;48.140;7.614;2023-09-12T07:19:23;31.70;;;14.27;;
5147;SDS011;2592;48.140;7.614;2023-09-12T07:21:50;23.67;;;15.13;;
5147;SDS011;2592;48.140;7.614;2023-09-12T07:24:16;25.60;;;12.90;;
5147;SDS011;2592;48.140;7.614;2023-09-12T07:26:44;29.90;;;12.97;;
5147;SDS011;2592;48.140;7.614;2023-09-12T07:29:11;26.50;;;14.63;;
5147;SDS011;2592;48.140;7.614;2023-09-12T07:31:38;21.53;;;14.27;;
5147;SDS011;2592;48.140;7.614;2023-09-12T07:34:04;20.13;;;13.30;;
5147;SDS011;2592;48.140;7.614;2023-09-12T07:36:31;21.00;;;15.03;;
5147;SDS011;2592;48.140;7.614;2023-09-12T07:38:57;27.63;;;14.70;;
5147;SDS011;2592;48.140;7.614;2023-09-12T07:41:24;21.80;;;14.17;;
5147;SDS011;2592;48.140;7.614;2023-09-12T07:43:51;28.60;;;15.67;;
5147;SDS011;2592;48.140;7.614;2023-09-12T07:46:18;29.97;;;13.20;;
5147;SDS011;2592;48.140;7.614;2023-09-12T07:48:44;21.63;;;14.37;;
5147;SDS011;2592;48.140;7.614;2023-09-12T07:51:11;25.60;;;13.30;;
5147;SDS011;2592;48.140;7.614;2023-09-12T07:53:38;19.83;;;13.40;;
5147;SDS011;2592;48.140;7.614;2023-09-12T07:56:04;22.50;;;14.60;;
5147;SDS011;2592;48.140;7.614;2023-09-12T07:58:30;25.93;;;14.07;;
5147;SDS011;2592;48.140;7.614;2023-09-12T08:00:58;19.03;;;13.83;;
5147;SDS011;2592;48.140;7.614;2023-09-12T08:03:25;20.20;;;14.40;;
5147;SDS011;2592;48.140;7.614;2023-09-12T08:05:55;35.03;;;16.17;;
5147;SDS011;2592;48.140;7.614;2023-09-12T08:08:22;39.20;;;14.47;;
5147;SDS011;2592;48.140;7.614;2023-09-12T08:10:48;25.30;;;15.20;;
5147;SDS011;2592;48.140;7.614;2023-09-12T08:13:15;24.63;;;15.70;;
5147;SDS011;2592;48.140;7.614;2023-09-12T08:15:41;21.70;;;14.03;;
5147;SDS011;2592;48.140;7.614;2023-09-12T08:18:09;23.27;;;14.17;;
5147;SDS011;2592;48.140;7.614;2023-09-12T08:20:36;23.03;;;13.90;;
5147;SDS011;2592;48.140;7.614;2023-09-12T08:23:02;25.43;;;14.00;;
5147;SDS011;2592;48.140;7.614;2023-09-12T08:25:29;26.10;;;14.23;;
5147;SDS011;2592;48.140;7.614;2023-09-12T08:27:55;25.33;;;13.43;;
5147;SDS011;2592;48.140;7.614;2023-09-12T08:30:22;21.93;;;14.20;;
5147;SDS011;2592;48.140;7.614;2023-09-12T08:32:48;22.80;;;13.80;;
5147;SDS011;2592;48.140;7.614;2023-09-12T08:35:16;24.57;;;14.00;;
5147;SDS011;2592;48.140;7.614;2023-09-12T08:37:42;19.77;;;13.30;;
5147;SDS011;2592;48.140;7.614;2023-09-12T08:40:09;21.60;;;12.57;;
5147;SDS011;2592;48.140;7.614;2023-09-12T08:42:38;21.10;;;12.43;;
5147;SDS011;2592;48.140;7.614;2023-09-12T08:45:06;18.10;;;12.50;;
5147;SDS011;2592;48.140;7.614;2023-09-12T08:47:32;16.87;;;13.07;;
5147;SDS011;2592;48.140;7.614;2023-09-12T08:50:01;22.50;;;13.13;;
5147;SDS011;2592;48.140;7.614;2023-09-12T08:52:29;17.77;;;11.63;;
5147;SDS011;2592;48.140;7.614;2023-09-12T08:54:56;28.30;;;13.37;;
5147;SDS011;2592;48.140;7.614;2023-09-12T08:57:23;17.60;;;10.70;;
5147;SDS011;2592;48.140;7.614;2023-09-12T08:59:50;24.93;;;12.13;;
5147;SDS011;2592;48.140;7.614;2023-09-12T09:02:17;14.90;;;11.70;;
5147;SDS011;2592;48.140;7.614;2023-09-12T09:04:44;17.50;;;11.73;;
5147;SDS011;2592;48.140;7.614;2023-09-12T09:07:12;15.90;;;10.17;;
5147;SDS011;2592;48.140;7.614;2023-09-12T09:09:40;14.40;;;9.80;;
5147;SDS011;2592;48.140;7.614;2023-09-12T09:12:07;14.83;;;9.80;;
5147;SDS011;2592;48.140;7.614;2023-09-12T09:14:33;16.70;;;9.67;;
5147;SDS011;2592;48.140;7.614;2023-09-12T09:17:00;16.93;;;9.40;;
5147;SDS011;2592;48.140;7.614;2023-09-12T09:19:39;12.70;;;8.37;;
5147;SDS011;2592;48.140;7.614;2023-09-12T09:22:06;10.83;;;8.00;;
5147;SDS011;2592;48.140;7.614;2023-09-12T09:24:32;11.73;;;7.83;;
5147;SDS011;2592;48.140;7.614;2023-09-12T09:27:00;12.83;;;8.90;;
5147;SDS011;2592;48.140;7.614;2023-09-12T09:29:27;18.30;;;8.83;;
5147;SDS011;2592;48.140;7.614;2023-09-12T09:31:57;13.60;;;8.67;;
5147;SDS011;2592;48.140;7.614;2023-09-12T09:34:24;10.70;;;8.60;;
5147;SDS011;2592;48.140;7.614;2023-09-12T09:36:53;10.93;;;7.97;;
5147;SDS011;2592;48.140;7.614;2023-09-12T09:39:19;12.43;;;7.30;;
5147;SDS011;2592;48.140;7.614;2023-09-12T09:41:47;10.67;;;7.70;;
5147;SDS011;2592;48.140;7.614;2023-09-12T09:44:15;15.50;;;8.23;;
5147;SDS011;2592;48.140;7.614;2023-09-12T09:46:42;8.30;;;6.90;;
5147;SDS011;2592;48.140;7.614;2023-09-12T09:49:09;10.83;;;7.30;;
5147;SDS011;2592;48.140;7.614;2023-09-12T09:51:40;13.40;;;7.10;;
5147;SDS011;2592;48.140;7.614;2023-09-12T09:54:07;10.23;;;8.57;;
5147;SDS011;2592;48.140;7.614;2023-09-12T09:56:34;9.00;;;6.40;;
5147;SDS011;2592;48.140;7.614;2023-09-12T09:59:11;12.20;;;7.07;;
5147;SDS011;2592;48.140;7.614;2023-09-12T10:01:41;11.60;;;6.90;;
5147;SDS011;2592;48.140;7.614;2023-09-12T10:04:07;10.70;;;6.17;;
5147;SDS011;2592;48.140;7.614;2023-09-12T10:06:34;11.43;;;5.77;;
5147;SDS011;2592;48.140;7.614;2023-09-12T10:09:02;21.80;;;9.50;;
5147;SDS011;2592;48.140;7.614;2023-09-12T10:11:32;29.27;;;7.80;;
5147;SDS011;2592;48.140;7.614;2023-09-12T10:14:00;11.23;;;6.50;;
5147;SDS011;2592;48.140;7.614;2023-09-12T10:16:29;17.37;;;6.00;;
5147;SDS011;2592;48.140;7.614;2023-09-12T10:18:58;9.47;;;6.00;;
5147;SDS011;2592;48.140;7.614;2023-09-12T10:21:28;8.80;;;6.90;;
5147;SDS011;2592;48.140;7.614;2023-09-12T10:23:55;8.77;;;5.97;;
5147;SDS011;2592;48.140;7.614;2023-09-12T10:26:22;10.70;;;5.90;;
5147;SDS011;2592;48.140;7.614;2023-09-12T10:28:49;19.57;;;5.90;;
5147;SDS011;2592;48.140;7.614;2023-09-12T10:31:17;8.07;;;6.00;;
5147;SDS011;2592;48.140;7.614;2023-09-12T10:33:43;13.40;;;6.40;;
5147;SDS011;2592;48.140;7.614;2023-09-12T10:36:12;9.43;;;6.00;;
5147;SDS011;2592;48.140;7.614;2023-09-12T10:38:40;12.23;;;5.70;;
5147;SDS011;2592;48.140;7.614;2023-09-12T10:41:08;7.37;;;6.20;;
5147;SDS011;2592;48.140;7.614;2023-09-12T10:43:37;11.57;;;6.30;;
5147;SDS011;2592;48.140;7.614;2023-09-12T10:46:04;13.97;;;5.70;;
5147;SDS011;2592;48.140;7.614;2023-09-12T10:48:32;7.47;;;5.77;;
5147;SDS011;2592;48.140;7.614;2023-09-12T10:50:58;7.30;;;5.10;;
5147;SDS011;2592;48.140;7.614;2023-09-12T10:53:30;5.63;;;5.03;;
5147;SDS011;2592;48.140;7.614;2023-09-12T10:55:58;7.80;;;5.40;;
5147;SDS011;2592;48.140;7.614;2023-09-12T10:58:25;10.47;;;5.97;;
5147;SDS011;2592;48.140;7.614;2023-09-12T11:03:38;15.03;;;6.00;;
5147;SDS011;2592;48.140;7.614;2023-09-12T11:06:05;9.07;;;6.03;;
5147;SDS011;2592;48.140;7.614;2023-09-12T11:08:47;12.23;;;6.83;;
5147;SDS011;2592;48.140;7.614;2023-09-12T11:11:33;8.00;;;5.03;;
5147;SDS011;2592;48.140;7.614;2023-09-12T11:14:02;9.27;;;6.30;;
5147;SDS011;2592;48.140;7.614;2023-09-12T11:16:29;7.10;;;6.17;;
5147;SDS011;2592;48.140;7.614;2023-09-12T11:19:14;9.10;;;5.90;;
5147;SDS011;2592;48.140;7.614;2023-09-12T11:21:42;6.03;;;5.00;;
5147;SDS011;2592;48.140;7.614;2023-09-12T11:24:10;6.27;;;5.00;;
5147;SDS011;2592;48.140;7.614;2023-09-12T11:26:51;6.03;;;5.43;;
5147;SDS011;2592;48.140;7.614;2023-09-12T11:29:19;9.83;;;5.57;;
5147;SDS011;2592;48.140;7.614;2023-09-12T11:31:51;14.73;;;5.80;;
5147;SDS011;2592;48.140;7.614;2023-09-12T11:34:17;9.13;;;5.60;;
5147;SDS011;2592;48.140;7.614;2023-09-12T11:36:44;15.63;;;5.63;;
5147;SDS011;2592;48.140;7.614;2023-09-12T11:39:27;11.27;;;5.10;;
5147;SDS011;2592;48.140;7.614;2023-09-12T11:41:54;7.90;;;5.40;;
5147;SDS011;2592;48.140;7.614;2023-09-12T11:44:21;12.27;;;6.67;;
5147;SDS011;2592;48.140;7.614;2023-09-12T11:46:48;10.83;;;5.13;;
5147;SDS011;2592;48.140;7.614;2023-09-12T11:49:15;7.50;;;5.17;;
5147;SDS011;2592;48.140;7.614;2023-09-12T11:51:48;5.60;;;4.93;;
5147;SDS011;2592;48.140;7.614;2023-09-12T11:54:15;7.50;;;5.20;;
5147;SDS011;2592;48.140;7.614;2023-09-12T11:56:43;9.20;;;5.40;;
5147;SDS011;2592;48.140;7.614;2023-09-12T11:59:10;8.93;;;5.10;;
5147;SDS011;2592;48.140;7.614;2023-09-12T12:01:36;6.27;;;5.67;;
5147;SDS011;2592;48.140;7.614;2023-09-12T12:04:03;6.13;;;5.27;;
5147;SDS011;2592;48.140;7.614;2023-09-12T12:06:31;7.23;;;5.30;;
5147;SDS011;2592;48.140;7.614;2023-09-12T12:09:00;7.50;;;5.80;;
5147;SDS011;2592;48.140;7.614;2023-09-12T12:11:27;10.07;;;5.57;;
5147;SDS011;2592;48.140;7.614;2023-09-12T12:13:55;5.90;;;5.30;;
5147;SDS011;2592;48.140;7.614;2023-09-12T12:16:21;5.70;;;5.10;;
5147;SDS011;2592;48.140;7.614;2023-09-12T12:18:48;5.93;;;5.33;;
5147;SDS011;2592;48.140;7.614;2023-09-12T12:21:19;5.67;;;5.13;;
5147;SDS011;2592;48.140;7.614;2023-09-12T12:23:46;7.10;;;5.23;;
5147;SDS011;2592;48.140;7.614;2023-09-12T12:26:12;7.00;;;4.97;;
5147;SDS011;2592;48.140;7.614;2023-09-12T12:28:38;4.70;;;3.87;;
5147;SDS011;2592;48.140;7.614;2023-09-12T12:31:08;7.40;;;5.23;;
5147;SDS011;2592;48.140;7.614;2023-09-12T12:33:35;5.97;;;4.40;;
5147;SDS011;2592;48.140;7.614;2023-09-12T12:36:02;7.57;;;4.80;;
5147;SDS011;2592;48.140;7.614;2023-09-12T12:38:31;5.57;;;4.50;;
5147;SDS011;2592;48.140;7.614;2023-09-12T12:40:57;4.63;;;4.20;;
5147;SDS011;2592;48.140;7.614;2023-09-12T12:43:24;6.13;;;4.27;;
5147;SDS011;2592;48.140;7.614;2023-09-12T12:45:52;6.03;;;4.70;;
5147;SDS011;2592;48.140;7.614;2023-09-12T12:48:29;7.60;;;4.50;;
5147;SDS011;2592;48.140;7.614;2023-09-12T12:50:56;5.90;;;4.80;;
5147;SDS011;2592;48.140;7.614;2023-09-12T12:53:36;6.90;;;4.37;;
5147;SDS011;2592;48.140;7.614;2023-09-12T12:56:03;5.20;;;4.50;;
5147;SDS011;2592;48.140;7.614;2023-09-12T12:58:29;5.03;;;3.83;;
5147;SDS011;2592;48.140;7.614;2023-09-12T13:00:56;11.07;;;4.30;;
5147;SDS011;2592;48.140;7.614;2023-09-12T13:03:22;5.30;;;3.13;;
5147;SDS011;2592;48.140;7.614;2023-09-12T13:05:50;3.37;;;3.03;;
5147;SDS011;2592;48.140;7.614;2023-09-12T13:08:16;3.13;;;2.80;;
5147;SDS011;2592;48.140;7.614;2023-09-12T13:10:43;5.20;;;2.80;;
5147;SDS011;2592;48.140;7.614;2023-09-12T13:13:10;3.20;;;2.23;;
5147;SDS011;2592;48.140;7.614;2023-09-12T13:15:37;3.83;;;2.53;;
5147;SDS011;2592;48.140;7.614;2023-09-12T13:18:03;5.37;;;2.77;;
5147;SDS011;2592;48.140;7.614;2023-09-12T13:20:30;7.43;;;2.80;;
5147;SDS011;2592;48.140;7.614;2023-09-12T13:22:58;6.23;;;2.20;;
5147;SDS011;2592;48.140;7.614;2023-09-12T13:25:24;3.30;;;2.10;;
5147;SDS011;2592;48.140;7.614;2023-09-12T13:27:51;3.43;;;2.47;;
5147;SDS011;2592;48.140;7.614;2023-09-12T13:30:17;2.53;;;2.00;;
5147;SDS011;2592;48.140;7.614;2023-09-12T13:32:44;4.93;;;2.83;;
5147;SDS011;2592;48.140;7.614;2023-09-12T13:35:11;4.20;;;2.60;;
5147;SDS011;2592;48.140;7.614;2023-09-12T13:37:37;4.07;;;1.87;;
5147;SDS011;2592;48.140;7.614;2023-09-12T13:40:06;7.80;;;2.50;;
5147;SDS011;2592;48.140;7.614;2023-09-12T13:42:34;6.73;;;2.70;;
5147;SDS011;2592;48.140;7.614;2023-09-12T13:45:00;3.40;;;2.90;;
5147;SDS011;2592;48.140;7.614;2023-09-12T13:47:27;3.63;;;2.87;;
5147;SDS011;2592;48.140;7.614;2023-09-12T13:49:53;3.23;;;2.40;;
5147;SDS011;2592;48.140;7.614;2023-09-12T13:52:21;6.33;;;2.60;;
5147;SDS011;2592;48.140;7.614;2023-09-12T13:54:48;10.03;;;2.70;;
5147;SDS011;2592;48.140;7.614;2023-09-12T13:57:16;4.90;;;2.90;;
5147;SDS011;2592;48.140;7.614;2023-09-12T13:59:43;11.93;;;2.80;;
5147;SDS011;2592;48.140;7.614;2023-09-12T14:02:09;7.63;;;3.00;;
5147;SDS011;2592;48.140;7.614;2023-09-12T14:04:36;4.83;;;2.30;;
5147;SDS011;2592;48.140;7.614;2023-09-12T14:07:02;2.33;;;2.07;;
5147;SDS011;2592;48.140;7.614;2023-09-12T14:09:29;5.73;;;2.10;;
5147;SDS011;2592;48.140;7.614;2023-09-12T14:11:55;2.40;;;1.90;;
5147;SDS011;2592;48.140;7.614;2023-09-12T14:14:23;5.50;;;2.30;;
5147;SDS011;2592;48.140;7.614;2023-09-12T14:16:49;3.73;;;2.20;;
5147;SDS011;2592;48.140;7.614;2023-09-12T14:19:15;4.60;;;2.10;;
5147;SDS011;2592;48.140;7.614;2023-09-12T14:21:42;16.50;;;2.60;;
5147;SDS011;2592;48.140;7.614;2023-09-12T14:24:09;3.57;;;2.10;;
5147;SDS011;2592;48.140;7.614;2023-09-12T14:26:36;3.33;;;2.20;;
5147;SDS011;2592;48.140;7.614;2023-09-12T14:29:02;3.47;;;2.47;;
5147;SDS011;2592;48.140;7.614;2023-09-12T14:31:30;4.47;;;2.50;;
5147;SDS011;2592;48.140;7.614;2023-09-12T14:33:56;4.97;;;2.33;;
5147;SDS011;2592;48.140;7.614;2023-09-12T14:36:23;10.10;;;2.27;;
5147;SDS011;2592;48.140;7.614;2023-09-12T14:38:49;5.77;;;2.60;;
5147;SDS011;2592;48.140;7.614;2023-09-12T14:41:15;3.83;;;2.53;;
5147;SDS011;2592;48.140;7.614;2023-09-12T14:43:42;3.40;;;2.30;;
5147;SDS011;2592;48.140;7.614;2023-09-12T14:46:08;3.53;;;2.40;;
5147;SDS011;2592;48.140;7.614;2023-09-12T14:48:36;3.63;;;2.70;;
5147;SDS011;2592;48.140;7.614;2023-09-12T14:51:03;3.23;;;2.67;;
5147;SDS011;2592;48.140;7.614;2023-09-12T14:53:29;8.60;;;3.00;;
5147;SDS011;2592;48.140;7.614;2023-09-12T14:55:57;7.57;;;2.73;;
5147;SDS011;2592;48.140;7.614;2023-09-12T14:58:23;3.90;;;3.03;;
5147;SDS011;2592;48.140;7.614;2023-09-12T15:00:49;8.00;;;3.73;;
5147;SDS011;2592;48.140;7.614;2023-09-12T15:03:16;7.03;;;3.43;;
5147;SDS011;2592;48.140;7.614;2023-09-12T15:05:44;6.43;;;3.37;;